Time;durP1;ratioP1;P1;durP2;ratioP2;P2;SDS_P1;SDS_P2;PMS_P1;PMS_P2;Temp;Humidity;BMP_temperature;BMP_pressure;BME280_temperature;BME280_humidity;BME280_pressure;Samples;Min_cycle;Max_cycle;Signal;HPM_P1;HPM_P2
2021/08/29 00:00:08;;;;;;;33.67;14.52;;;;;;;;;;5054710;28;20107;-75
2021/08/29 00:02:33;;;;;;;33.70;15.15;;;;;;;;;;5054887;28;20033;-75
2021/08/29 00:04:59;;;;;;;32.33;14.52;;;;;;;;;;5054785;28;20032;-75
2021/08/29 00:07:24;;;;;;;35.20;15.43;;;;;;;;;;5054892;28;20028;-75
2021/08/29 00:09:49;;;;;;;35.83;13.93;;;;;;;;;;5054480;28;20033;-75
2021/08/29 00:12:14;;;;;;;34.53;14.57;;;;;;;;;;5054696;28;20114;-75
2021/08/29 00:14:40;;;;;;;34.55;14.63;;;;;;;;;;5054461;28;20029;-75
2021/08/29 00:17:05;;;;;;;34.17;13.75;;;;;;;;;;5054643;28;20075;-75
2021/08/29 00:19:30;;;;;;;31.83;15.30;;;;;;;;;;5054340;28;20029;-75
2021/08/29 00:21:55;;;;;;;35.25;14.63;;;;;;;;;;5054888;28;20056;-76
2021/08/29 00:24:21;;;;;;;36.75;14.52;;;;;;;;;;5054529;28;20060;-75
2021/08/29 00:26:46;;;;;;;44.55;17.02;;;;;;;;;;5054195;28;20033;-76
2021/08/29 00:29:11;;;;;;;30.58;14.23;;;;;;;;;;5054378;28;20017;-76
2021/08/29 00:31:37;;;;;;;31.10;13.90;;;;;;;;;;5053807;28;20049;-75
2021/08/29 00:34:02;;;;;;;28.02;13.55;;;;;;;;;;5054302;28;20049;-75
2021/08/29 00:36:27;;;;;;;45.45;15.75;;;;;;;;;;5054336;28;20048;-75
2021/08/29 00:38:52;;;;;;;32.17;14.35;;;;;;;;;;5054262;28;20112;-75
2021/08/29 00:41:18;;;;;;;27.85;13.63;;;;;;;;;;5053840;28;20045;-76
2021/08/29 00:43:43;;;;;;;33.83;14.18;;;;;;;;;;5054261;28;20016;-76
2021/08/29 00:46:08;;;;;;;38.65;16.40;;;;;;;;;;5054072;28;20035;-75
2021/08/29 00:48:34;;;;;;;33.97;14.75;;;;;;;;;;5053855;28;20036;-75
2021/08/29 00:50:59;;;;;;;38.17;15.45;;;;;;;;;;5053817;28;20100;-75
2021/08/29 00:53:24;;;;;;;40.22;16.50;;;;;;;;;;5054081;28;20033;-75
2021/08/29 00:55:54;;;;;;;40.47;15.63;;;;;;;;;;5053963;28;20104;-75
2021/08/29 00:58:24;;;;;;;39.75;15.30;;;;;;;;;;5053887;28;20021;-75
2021/08/29 01:00:50;;;;;;;34.60;15.43;;;;;;;;;;5053878;28;20057;-75
2021/08/29 01:03:18;;;;;;;31.33;15.18;;;;;;;;;;5053119;28;20036;-75
2021/08/29 01:06:09;;;;;;;39.08;16.33;;;;;;;;;;5053795;28;20055;-76
2021/08/29 01:08:38;;;;;;;40.17;15.95;;;;;;;;;;5022672;28;20064;-75
2021/08/29 01:11:13;;;;;;;36.40;14.50;;;;;;;;;;5053609;28;20032;-75
2021/08/29 01:13:43;;;;;;;44.28;14.80;;;;;;;;;;5053625;28;20124;-75
2021/08/29 01:16:09;;;;;;;31.52;14.65;;;;;;;;;;5053478;28;20082;-75
2021/08/29 01:18:36;;;;;;;34.30;14.88;;;;;;;;;;5035807;28;20359;-75
2021/08/29 01:21:02;;;;;;;34.78;13.85;;;;;;;;;;5053497;28;20031;-76
2021/08/29 01:23:29;;;;;;;32.83;14.88;;;;;;;;;;5053550;28;20532;-75
2021/08/29 01:25:56;;;;;;;32.42;14.00;;;;;;;;;;5053528;28;20023;-75
2021/08/29 01:28:23;;;;;;;37.10;14.60;;;;;;;;;;5053376;28;20078;-75
2021/08/29 01:30:49;;;;;;;33.28;13.85;;;;;;;;;;5053042;28;20397;-75
2021/08/29 01:33:14;;;;;;;31.85;13.93;;;;;;;;;;5053337;28;20020;-75
2021/08/29 01:35:41;;;;;;;35.40;13.75;;;;;;;;;;5053330;28;20045;-75
2021/08/29 01:38:08;;;;;;;42.22;15.45;;;;;;;;;;5053142;28;20389;-76
2021/08/29 01:40:33;;;;;;;33.80;14.55;;;;;;;;;;5053479;28;20044;-75
2021/08/29 01:42:59;;;;;;;35.15;13.73;;;;;;;;;;5053115;28;20044;-76
2021/08/29 01:45:24;;;;;;;39.63;14.80;;;;;;;;;;5053309;28;20040;-75
2021/08/29 01:47:52;;;;;;;31.65;14.20;;;;;;;;;;5053196;28;20031;-76
2021/08/29 01:50:18;;;;;;;42.33;15.50;;;;;;;;;;5035353;28;20029;-76
2021/08/29 01:52:43;;;;;;;40.58;15.32;;;;;;;;;;5053101;28;20485;-75
2021/08/29 01:55:09;;;;;;;33.45;13.52;;;;;;;;;;5053157;28;20472;-75
2021/08/29 01:57:34;;;;;;;41.78;15.60;;;;;;;;;;5053203;28;20025;-75
2021/08/29 01:59:59;;;;;;;45.58;15.95;;;;;;;;;;5052963;28;20062;-75
2021/08/29 02:02:24;;;;;;;34.22;13.13;;;;;;;;;;5052932;28;20021;-75
2021/08/29 02:04:50;;;;;;;30.73;14.15;;;;;;;;;;5053408;28;20021;-75
2021/08/29 02:07:31;;;;;;;33.63;13.77;;;;;;;;;;5053102;28;20530;-75
2021/08/29 02:09:59;;;;;;;31.77;13.50;;;;;;;;;;5052719;28;20068;-75
2021/08/29 02:12:26;;;;;;;36.13;13.65;;;;;;;;;;5052705;28;20511;-75
2021/08/29 02:15:20;;;;;;;34.50;13.38;;;;;;;;;;5054216;28;20013;-75
2021/08/29 02:17:47;;;;;;;38.85;15.07;;;;;;;;;;5039187;28;20098;-76
2021/08/29 02:20:14;;;;;;;32.17;14.35;;;;;;;;;;5056967;28;20033;-75
2021/08/29 02:22:39;;;;;;;50.38;16.05;;;;;;;;;;5056853;28;20114;-75
2021/08/29 02:25:05;;;;;;;41.78;13.73;;;;;;;;;;5056782;28;20075;-75
2021/08/29 02:27:31;;;;;;;33.15;13.50;;;;;;;;;;5056734;28;20036;-75
2021/08/29 02:29:58;;;;;;;29.92;12.65;;;;;;;;;;5056718;28;20028;-75
2021/08/29 02:32:24;;;;;;;30.80;13.50;;;;;;;;;;5056771;28;20396;-75
2021/08/29 02:34:49;;;;;;;32.38;13.63;;;;;;;;;;5056653;28;20033;-75
2021/08/29 02:37:15;;;;;;;42.88;14.57;;;;;;;;;;5056555;28;20024;-75
2021/08/29 02:39:40;;;;;;;34.40;13.43;;;;;;;;;;5056591;28;20056;-75
2021/08/29 02:42:06;;;;;;;30.98;13.27;;;;;;;;;;5056600;28;20029;-75
2021/08/29 02:44:33;;;;;;;45.55;14.57;;;;;;;;;;5056586;28;20067;-75
2021/08/29 02:46:59;;;;;;;36.40;15.02;;;;;;;;;;5056091;28;20532;-75
2021/08/29 02:49:24;;;;;;;41.08;15.00;;;;;;;;;;5056352;28;20125;-75
2021/08/29 02:51:50;;;;;;;37.97;13.60;;;;;;;;;;5056196;28;20449;-75
2021/08/29 02:54:16;;;;;;;30.30;13.15;;;;;;;;;;5055856;28;20037;-75
2021/08/29 02:56:42;;;;;;;26.23;11.75;;;;;;;;;;5056253;28;20103;-76
2021/08/29 02:59:08;;;;;;;24.63;11.20;;;;;;;;;;5056128;28;20025;-75
2021/08/29 03:01:33;;;;;;;34.53;12.68;;;;;;;;;;5055914;28;20496;-76
2021/08/29 03:03:58;;;;;;;41.03;14.88;;;;;;;;;;5055982;28;20036;-75
2021/08/29 03:06:24;;;;;;;27.08;11.55;;;;;;;;;;5056097;28;20043;-75
2021/08/29 03:08:49;;;;;;;39.60;14.00;;;;;;;;;;5055897;28;20476;-76
2021/08/29 03:11:16;;;;;;;29.13;12.00;;;;;;;;;;5055977;28;20039;-75
2021/08/29 03:13:42;;;;;;;33.97;13.38;;;;;;;;;;5055833;28;20373;-75
2021/08/29 03:16:07;;;;;;;36.70;13.93;;;;;;;;;;5055993;28;20036;-75
2021/08/29 03:18:33;;;;;;;34.28;12.93;;;;;;;;;;5055870;28;20033;-74
2021/08/29 03:20:58;;;;;;;33.75;12.80;;;;;;;;;;5055750;28;20436;-75
2021/08/29 03:23:23;;;;;;;35.60;13.57;;;;;;;;;;5055682;28;20042;-75
2021/08/29 03:25:49;;;;;;;50.97;15.27;;;;;;;;;;5055385;28;20029;-76
2021/08/29 03:28:14;;;;;;;36.53;13.40;;;;;;;;;;5055344;28;20464;-75
2021/08/29 03:30:39;;;;;;;34.20;13.32;;;;;;;;;;5055506;28;20029;-75
2021/08/29 03:33:05;;;;;;;35.63;13.65;;;;;;;;;;5055003;28;20036;-75
2021/08/29 03:35:30;;;;;;;32.17;12.27;;;;;;;;;;5055587;28;20028;-75
2021/08/29 03:37:56;;;;;;;38.58;14.20;;;;;;;;;;5055427;28;20029;-75
2021/08/29 03:40:22;;;;;;;38.22;13.40;;;;;;;;;;5055324;28;20044;-75
2021/08/29 03:42:48;;;;;;;31.55;12.07;;;;;;;;;;5055317;28;20028;-76
2021/08/29 03:45:13;;;;;;;36.83;12.23;;;;;;;;;;5055211;28;20100;-75
2021/08/29 03:47:39;;;;;;;30.55;12.13;;;;;;;;;;5055097;28;20028;-75
2021/08/29 03:50:05;;;;;;;33.30;12.70;;;;;;;;;;5055123;28;20442;-76
2021/08/29 03:52:32;;;;;;;39.65;12.88;;;;;;;;;;5055131;28;20040;-75
2021/08/29 03:54:57;;;;;;;31.55;12.60;;;;;;;;;;5055090;28;20045;-75
2021/08/29 03:57:23;;;;;;;34.00;12.77;;;;;;;;;;5055095;28;20099;-75
2021/08/29 03:59:48;;;;;;;29.17;11.57;;;;;;;;;;5037165;28;20056;-76
2021/08/29 04:02:14;;;;;;;30.23;13.18;;;;;;;;;;5055051;28;20423;-76
2021/08/29 04:04:39;;;;;;;27.98;11.77;;;;;;;;;;5054603;28;20020;-75
2021/08/29 04:07:05;;;;;;;39.25;12.95;;;;;;;;;;5054826;28;20036;-75
2021/08/29 04:09:31;;;;;;;35.50;12.25;;;;;;;;;;5054955;28;20419;-75
2021/08/29 04:11:57;;;;;;;31.08;11.70;;;;;;;;;;5054866;28;20029;-75
2021/08/29 04:14:23;;;;;;;30.05;12.13;;;;;;;;;;5054710;28;20063;-75
2021/08/29 04:16:49;;;;;;;38.10;13.05;;;;;;;;;;5054772;28;20032;-75
2021/08/29 04:19:15;;;;;;;29.17;11.70;;;;;;;;;;5036837;28;20024;-75
2021/08/29 04:21:40;;;;;;;31.50;11.65;;;;;;;;;;5054617;28;20028;-75
2021/08/29 04:24:06;;;;;;;38.53;12.85;;;;;;;;;;5054466;28;20124;-75
2021/08/29 04:26:31;;;;;;;27.08;12.18;;;;;;;;;;5054633;28;20106;-75
2021/08/29 04:28:57;;;;;;;34.70;12.57;;;;;;;;;;5054384;28;20476;-75
2021/08/29 04:31:23;;;;;;;34.08;11.45;;;;;;;;;;5054095;28;20482;-75
2021/08/29 04:33:49;;;;;;;32.05;11.15;;;;;;;;;;5054381;28;20032;-76
2021/08/29 04:36:15;;;;;;;31.23;12.63;;;;;;;;;;5036417;28;20362;-75
2021/08/29 04:38:40;;;;;;;31.23;11.90;;;;;;;;;;5053443;28;20087;-75
2021/08/29 04:41:05;;;;;;;35.03;11.95;;;;;;;;;;5054152;28;20017;-75
2021/08/29 04:43:31;;;;;;;35.70;12.77;;;;;;;;;;5054522;28;20063;-75
2021/08/29 04:45:56;;;;;;;32.22;12.63;;;;;;;;;;5053469;28;20461;-76
2021/08/29 04:48:21;;;;;;;30.85;11.98;;;;;;;;;;5054254;28;20032;-75
2021/08/29 04:50:47;;;;;;;32.15;11.82;;;;;;;;;;5054057;28;20033;-75
2021/08/29 04:53:12;;;;;;;30.45;11.98;;;;;;;;;;5053817;28;20059;-75
2021/08/29 04:55:37;;;;;;;29.40;11.60;;;;;;;;;;5053978;28;20052;-75
2021/08/29 04:58:03;;;;;;;49.80;15.30;;;;;;;;;;5053750;28;20351;-75
2021/08/29 05:00:28;;;;;;;29.70;12.23;;;;;;;;;;5036242;28;20065;-75
2021/08/29 05:02:53;;;;;;;33.33;12.77;;;;;;;;;;5053820;28;20036;-76
2021/08/29 05:05:19;;;;;;;29.88;12.32;;;;;;;;;;5053818;28;20032;-75
2021/08/29 05:07:44;;;;;;;36.38;13.30;;;;;;;;;;5053840;28;20439;-75
2021/08/29 05:10:09;;;;;;;36.58;12.70;;;;;;;;;;5053713;28;20559;-75
2021/08/29 05:12:35;;;;;;;32.90;12.13;;;;;;;;;;5053719;28;20025;-75
2021/08/29 05:15:00;;;;;;;35.08;12.45;;;;;;;;;;5053655;28;20367;-75
2021/08/29 05:17:25;;;;;;;34.83;11.63;;;;;;;;;;5053619;28;20016;-75
2021/08/29 05:19:50;;;;;;;35.05;11.75;;;;;;;;;;5053575;28;20434;-75
2021/08/29 05:22:16;;;;;;;25.40;11.27;;;;;;;;;;5053570;28;20055;-75
2021/08/29 05:24:41;;;;;;;31.50;10.85;;;;;;;;;;5053532;28;20443;-75
2021/08/29 05:27:06;;;;;;;33.45;11.48;;;;;;;;;;5053508;28;20135;-75
2021/08/29 05:29:31;;;;;;;32.00;12.77;;;;;;;;;;5053439;28;20461;-75
2021/08/29 05:31:57;;;;;;;38.00;12.70;;;;;;;;;;5053607;28;20049;-75
2021/08/29 05:34:22;;;;;;;35.30;11.80;;;;;;;;;;5053298;28;20393;-75
2021/08/29 05:36:47;;;;;;;37.65;12.60;;;;;;;;;;5053411;28;20025;-75
2021/08/29 05:39:12;;;;;;;33.17;11.95;;;;;;;;;;5053265;28;20100;-75
2021/08/29 05:41:38;;;;;;;27.85;11.35;;;;;;;;;;5053086;28;20466;-76
2021/08/29 05:44:03;;;;;;;31.33;11.27;;;;;;;;;;5053236;28;20033;-75
2021/08/29 05:46:28;;;;;;;42.95;12.88;;;;;;;;;;5053268;28;20079;-75
2021/08/29 05:48:54;;;;;;;42.40;11.95;;;;;;;;;;5052967;28;20411;-75
2021/08/29 05:51:19;;;;;;;40.30;12.10;;;;;;;;;;5057188;28;20033;-75
2021/08/29 05:53:44;;;;;;;28.95;11.43;;;;;;;;;;5057108;28;20037;-75
2021/08/29 05:56:10;;;;;;;34.92;11.60;;;;;;;;;;5057263;28;20032;-75
2021/08/29 05:58:35;;;;;;;33.63;11.85;;;;;;;;;;5057108;28;20460;-75
2021/08/29 06:01:00;;;;;;;33.47;12.50;;;;;;;;;;5057317;28;20029;-74
2021/08/29 06:03:26;;;;;;;42.40;13.55;;;;;;;;;;5057336;28;20029;-75
2021/08/29 06:05:51;;;;;;;39.97;12.77;;;;;;;;;;5057105;28;20068;-76
2021/08/29 06:08:16;;;;;;;63.45;15.15;;;;;;;;;;5057094;28;20025;-75
2021/08/29 06:10:42;;;;;;;177.88;23.67;;;;;;;;;;5057142;28;20024;-76
2021/08/29 06:13:07;;;;;;;23.20;9.25;;;;;;;;;;5056924;28;20465;-75
2021/08/29 06:15:32;;;;;;;1327.38;92.35;;;;;;;;;;5056713;28;20029;-76
2021/08/29 06:17:58;;;;;;;1358.30;103.72;;;;;;;;;;5056934;28;20021;-75
2021/08/29 06:20:25;;;;;;;1948.68;133.10;;;;;;;;;;5056584;28;20065;-76
2021/08/29 06:22:50;;;;;;;1522.85;121.90;;;;;;;;;;5056967;28;20465;-75
2021/08/29 06:25:16;;;;;;;1999.90;148.65;;;;;;;;;;5056731;28;20130;-76
2021/08/29 06:27:41;;;;;;;1836.40;140.13;;;;;;;;;;5056811;28;20037;-76
2021/08/29 06:30:06;;;;;;;1038.50;96.43;;;;;;;;;;5056557;28;20100;-75
2021/08/29 06:32:32;;;;;;;1999.90;273.80;;;;;;;;;;5056865;28;20500;-76
2021/08/29 06:34:57;;;;;;;1550.53;155.45;;;;;;;;;;5056484;28;20037;-76
2021/08/29 06:37:22;;;;;;;702.92;81.95;;;;;;;;;;5056630;28;20112;-75
2021/08/29 06:39:48;;;;;;;205.18;22.38;;;;;;;;;;5056702;28;20070;-76
2021/08/29 06:42:13;;;;;;;47.42;7.80;;;;;;;;;;5056584;28;20025;-76
2021/08/29 06:44:38;;;;;;;113.57;13.93;;;;;;;;;;5056508;28;20115;-75
2021/08/29 06:47:03;;;;;;;10.25;5.95;;;;;;;;;;5056245;28;20033;-76
2021/08/29 06:49:29;;;;;;;10.15;5.05;;;;;;;;;;5056234;28;20025;-74
2021/08/29 06:51:54;;;;;;;8.05;4.70;;;;;;;;;;5056340;28;20059;-74
2021/08/29 06:54:19;;;;;;;11.48;4.45;;;;;;;;;;5055815;28;20045;-73
2021/08/29 06:56:44;;;;;;;10.18;4.07;;;;;;;;;;5056356;28;20040;-73
2021/08/29 06:59:10;;;;;;;7.30;3.60;;;;;;;;;;5056093;28;20139;-74
2021/08/29 07:01:35;;;;;;;7.30;4.10;;;;;;;;;;5055121;28;20028;-76
2021/08/29 07:04:00;;;;;;;10.75;3.83;;;;;;;;;;5038261;28;20076;-74
2021/08/29 07:06:25;;;;;;;7.53;3.85;;;;;;;;;;5056029;28;20024;-76
2021/08/29 07:08:51;;;;;;;8.73;4.03;;;;;;;;;;5055879;28;20075;-75
2021/08/29 07:11:16;;;;;;;9.38;3.45;;;;;;;;;;5055933;28;20041;-76
2021/08/29 07:13:41;;;;;;;7.53;3.20;;;;;;;;;;5055850;28;20571;-76
2021/08/29 07:16:06;;;;;;;7.75;3.38;;;;;;;;;;5055750;28;20032;-75
2021/08/29 07:18:32;;;;;;;5.57;3.00;;;;;;;;;;5055563;28;20036;-76
2021/08/29 07:20:57;;;;;;;5.70;3.50;;;;;;;;;;5055782;28;20052;-75
2021/08/29 07:23:23;;;;;;;6.28;3.67;;;;;;;;;;5055752;28;20540;-75
2021/08/29 07:25:49;;;;;;;6.03;3.40;;;;;;;;;;5055677;28;20033;-75
2021/08/29 07:28:14;;;;;;;7.07;3.90;;;;;;;;;;5055550;28;20029;-75
2021/08/29 07:30:40;;;;;;;6.57;3.58;;;;;;;;;;5055337;28;20422;-75
2021/08/29 07:33:05;;;;;;;10.55;4.30;;;;;;;;;;5055372;28;20037;-75
2021/08/29 07:35:30;;;;;;;7.72;3.60;;;;;;;;;;5055516;28;20032;-76
2021/08/29 07:37:55;;;;;;;7.90;3.50;;;;;;;;;;5055485;28;20033;-76
2021/08/29 07:40:21;;;;;;;9.50;3.85;;;;;;;;;;5055784;28;20115;-75
2021/08/29 07:42:46;;;;;;;6.15;3.72;;;;;;;;;;5055001;28;20111;-75
2021/08/29 07:45:12;;;;;;;8.05;4.28;;;;;;;;;;5055267;28;20036;-75
2021/08/29 07:47:37;;;;;;;6.82;4.18;;;;;;;;;;5055439;28;20102;-75
2021/08/29 07:50:03;;;;;;;7.82;4.28;;;;;;;;;;5055158;28;20017;-76
2021/08/29 07:52:28;;;;;;;10.05;4.47;;;;;;;;;;5055115;28;20028;-75
2021/08/29 07:54:53;;;;;;;10.48;5.05;;;;;;;;;;5055144;28;20033;-75
2021/08/29 07:57:18;;;;;;;22.45;9.63;;;;;;;;;;5054823;28;20449;-75
2021/08/29 07:59:44;;;;;;;23.33;8.05;;;;;;;;;;5054825;28;20025;-75
2021/08/29 08:02:11;;;;;;;35.70;14.95;;;;;;;;;;5054993;28;20033;-75
2021/08/29 08:04:36;;;;;;;44.70;15.77;;;;;;;;;;5054991;28;20040;-75
2021/08/29 08:07:02;;;;;;;38.80;15.55;;;;;;;;;;5054758;28;20025;-76
2021/08/29 08:09:27;;;;;;;23.92;9.93;;;;;;;;;;5055240;28;20041;-75
2021/08/29 08:11:52;;;;;;;35.75;14.02;;;;;;;;;;5054905;28;20017;-75
2021/08/29 08:14:18;;;;;;;33.65;15.68;;;;;;;;;;5054447;28;20128;-77
2021/08/29 08:16:43;;;;;;;34.13;13.55;;;;;;;;;;5054767;28;20367;-75
2021/08/29 08:19:08;;;;;;;36.25;15.55;;;;;;;;;;5054636;28;20027;-76
2021/08/29 08:21:33;;;;;;;42.42;17.02;;;;;;;;;;5054632;28;20382;-75
2021/08/29 08:23:59;;;;;;;40.15;17.10;;;;;;;;;;5054304;28;20058;-76
2021/08/29 08:26:24;;;;;;;26.70;13.18;;;;;;;;;;5054531;28;20074;-75
2021/08/29 08:28:49;;;;;;;31.48;15.10;;;;;;;;;;5054659;28;20119;-76
2021/08/29 08:31:14;;;;;;;29.13;14.02;;;;;;;;;;5054120;28;20131;-75
2021/08/29 08:33:40;;;;;;;35.75;14.02;;;;;;;;;;5054436;28;20458;-75
2021/08/29 08:36:05;;;;;;;31.30;13.35;;;;;;;;;;5054307;28;20071;-76
2021/08/29 08:38:30;;;;;;;33.95;14.20;;;;;;;;;;5054327;28;20036;-75
2021/08/29 08:40:55;;;;;;;28.58;12.95;;;;;;;;;;5054367;28;20032;-77
2021/08/29 08:43:21;;;;;;;31.08;13.35;;;;;;;;;;5054032;28;20107;-75
2021/08/29 08:45:47;;;;;;;33.30;13.90;;;;;;;;;;5054323;28;20040;-75
2021/08/29 08:48:12;;;;;;;36.30;13.50;;;;;;;;;;5054071;28;20107;-75
2021/08/29 08:50:38;;;;;;;33.92;11.95;;;;;;;;;;5054205;28;20525;-75
2021/08/29 08:53:04;;;;;;;25.83;10.10;;;;;;;;;;5053820;28;20037;-76
2021/08/29 08:55:30;;;;;;;25.40;10.75;;;;;;;;;;5053998;28;20048;-73
2021/08/29 08:57:55;;;;;;;22.98;11.15;;;;;;;;;;5053981;28;20067;-73
2021/08/29 09:00:21;;;;;;;19.63;10.07;;;;;;;;;;5053865;28;20029;-73
2021/08/29 09:02:46;;;;;;;20.67;9.95;;;;;;;;;;5053930;28;20046;-74
2021/08/29 09:05:12;;;;;;;23.98;10.80;;;;;;;;;;5053486;28;20520;-74
2021/08/29 09:07:37;;;;;;;19.38;8.95;;;;;;;;;;5053533;28;20037;-74
2021/08/29 09:10:03;;;;;;;21.33;10.18;;;;;;;;;;5053488;28;20024;-74
2021/08/29 09:12:28;;;;;;;14.23;9.10;;;;;;;;;;5053793;28;20025;-73
2021/08/29 09:14:57;;;;;;;14.50;8.93;;;;;;;;;;5053669;28;20037;-73
2021/08/29 09:17:22;;;;;;;14.48;8.55;;;;;;;;;;5035629;28;20362;-76
2021/08/29 09:19:48;;;;;;;16.13;9.05;;;;;;;;;;5053653;28;20025;-76
2021/08/29 09:22:14;;;;;;;18.88;9.60;;;;;;;;;;5053403;28;20075;-76
2021/08/29 09:24:48;;;;;;;17.95;8.68;;;;;;;;;;5053038;28;20032;-73
2021/08/29 09:27:13;;;;;;;15.57;8.95;;;;;;;;;;5053433;28;20040;-74
2021/08/29 09:29:39;;;;;;;14.75;7.85;;;;;;;;;;5053662;28;20385;-74
2021/08/29 09:32:06;;;;;;;15.25;8.13;;;;;;;;;;5052900;28;20053;-74
2021/08/29 09:34:32;;;;;;;16.25;8.88;;;;;;;;;;5053470;28;20079;-74
2021/08/29 09:37:00;;;;;;;17.67;8.63;;;;;;;;;;5053375;28;20457;-76
2021/08/29 09:39:26;;;;;;;16.58;10.27;;;;;;;;;;5053130;28;20028;-74
2021/08/29 09:42:00;;;;;;;18.23;8.48;;;;;;;;;;5053259;28;20025;-74
2021/08/29 09:44:30;;;;;;;18.00;9.35;;;;;;;;;;5053324;28;20048;-75
2021/08/29 09:46:57;;;;;;;15.55;8.68;;;;;;;;;;5053013;28;20473;-74
2021/08/29 09:49:26;;;;;;;16.98;8.52;;;;;;;;;;5053293;28;20083;-75
2021/08/29 09:51:52;;;;;;;16.60;8.18;;;;;;;;;;5053349;28;20025;-75
2021/08/29 09:54:30;;;;;;;14.30;7.35;;;;;;;;;;5053043;28;20055;-75
2021/08/29 09:56:56;;;;;;;16.30;7.93;;;;;;;;;;5053244;28;20029;-75
2021/08/29 09:59:40;;;;;;;12.35;6.82;;;;;;;;;;5053082;28;20105;-75
2021/08/29 10:02:05;;;;;;;10.13;6.18;;;;;;;;;;5053023;28;20029;-77
2021/08/29 10:04:31;;;;;;;19.13;7.40;;;;;;;;;;5053213;28;20036;-77
2021/08/29 10:07:08;;;;;;;13.13;7.13;;;;;;;;;;5053158;28;20039;-78
2021/08/29 10:09:33;;;;;;;12.70;7.45;;;;;;;;;;5035340;28;20128;-77
2021/08/29 10:11:59;;;;;;;13.88;8.18;;;;;;;;;;5053150;28;20482;-78
2021/08/29 10:14:25;;;;;;;11.10;6.40;;;;;;;;;;5052970;28;20029;-77
2021/08/29 10:16:50;;;;;;;13.23;7.22;;;;;;;;;;5053084;28;20507;-77
2021/08/29 10:19:15;;;;;;;14.88;6.90;;;;;;;;;;5052876;28;20523;-77
2021/08/29 10:21:41;;;;;;;11.15;7.18;;;;;;;;;;5053050;28;20094;-77
2021/08/29 10:24:07;;;;;;;8.60;5.45;;;;;;;;;;5035074;28;20219;-77
2021/08/29 10:26:33;;;;;;;12.73;6.60;;;;;;;;;;5053053;28;20112;-77
2021/08/29 10:29:03;;;;;;;12.20;6.85;;;;;;;;;;5052727;28;20365;-77
2021/08/29 10:31:33;;;;;;;15.32;7.30;;;;;;;;;;5052782;28;20183;-74
2021/08/29 10:34:00;;;;;;;13.95;7.15;;;;;;;;;;5052821;28;20040;-74
2021/08/29 10:36:26;;;;;;;11.15;6.75;;;;;;;;;;5055416;28;20028;-76
2021/08/29 10:38:51;;;;;;;12.18;6.28;;;;;;;;;;5056360;28;20029;-77
2021/08/29 10:41:20;;;;;;;14.10;7.13;;;;;;;;;;5056139;28;20033;-76
2021/08/29 10:43:45;;;;;;;13.18;6.30;;;;;;;;;;5056478;28;20022;-75
2021/08/29 10:46:11;;;;;;;12.95;6.63;;;;;;;;;;5056477;28;20109;-74
2021/08/29 10:48:39;;;;;;;12.65;6.40;;;;;;;;;;5056485;28;20064;-74
2021/08/29 10:51:04;;;;;;;10.55;6.05;;;;;;;;;;5056328;28;20343;-74
2021/08/29 10:53:31;;;;;;;13.55;6.53;;;;;;;;;;5056809;28;20041;-74
2021/08/29 10:56:14;;;;;;;14.65;6.70;;;;;;;;;;5056286;28;20036;-74
2021/08/29 10:58:40;;;;;;;12.10;6.60;;;;;;;;;;5055404;28;20036;-74
2021/08/29 11:01:25;;;;;;;10.23;5.97;;;;;;;;;;5055525;28;20041;-74
2021/08/29 11:03:51;;;;;;;14.30;7.43;;;;;;;;;;5052176;28;20021;-74
2021/08/29 11:06:35;;;;;;;11.15;6.40;;;;;;;;;;5055851;28;20475;-74
2021/08/29 11:09:18;;;;;;;13.82;7.00;;;;;;;;;;5055587;28;20115;-77
2021/08/29 11:11:50;;;;;;;14.05;7.30;;;;;;;;;;5055942;28;20029;-76
2021/08/29 11:14:47;;;;;;;10.88;6.13;;;;;;;;;;5055407;28;20052;-76
2021/08/29 11:17:13;;;;;;;11.52;5.75;;;;;;;;;;5035828;28;20179;-77
2021/08/29 11:19:42;;;;;;;9.57;6.15;;;;;;;;;;5055823;28;20029;-76
2021/08/29 11:22:08;;;;;;;14.15;6.70;;;;;;;;;;5055576;28;20056;-76
2021/08/29 11:24:45;;;;;;;10.93;5.82;;;;;;;;;;5055236;28;20457;-74
2021/08/29 11:27:30;;;;;;;9.70;5.90;;;;;;;;;;5055487;28;20472;-74
2021/08/29 11:29:56;;;;;;;11.82;5.50;;;;;;;;;;5055319;28;20457;-74
2021/08/29 11:32:39;;;;;;;7.72;4.88;;;;;;;;;;5054970;28;20072;-74
2021/08/29 11:35:06;;;;;;;9.98;4.90;;;;;;;;;;5055446;28;20029;-75
2021/08/29 11:37:31;;;;;;;13.30;5.80;;;;;;;;;;5055562;28;20029;-74
2021/08/29 11:40:00;;;;;;;9.18;5.47;;;;;;;;;;5055543;28;20148;-74
2021/08/29 11:42:27;;;;;;;9.15;5.07;;;;;;;;;;5055188;28;20104;-74
2021/08/29 11:44:53;;;;;;;9.77;4.97;;;;;;;;;;5055038;28;20021;-74
2021/08/29 11:47:18;;;;;;;11.25;5.30;;;;;;;;;;5054360;28;20036;-74
2021/08/29 11:49:51;;;;;;;12.73;4.95;;;;;;;;;;5054999;28;20119;-74
2021/08/29 11:52:25;;;;;;;14.98;5.82;;;;;;;;;;5037234;28;20053;-74
2021/08/29 11:55:02;;;;;;;10.75;5.47;;;;;;;;;;5055082;28;20041;-75
2021/08/29 11:57:27;;;;;;;26.15;6.85;;;;;;;;;;5054993;28;20033;-76
2021/08/29 12:00:04;;;;;;;9.82;5.53;;;;;;;;;;5055065;28;20063;-76
2021/08/29 12:02:41;;;;;;;8.65;4.45;;;;;;;;;;5055066;28;20028;-76
2021/08/29 12:05:07;;;;;;;11.18;5.40;;;;;;;;;;5054956;28;20108;-76
2021/08/29 12:07:35;;;;;;;9.52;6.28;;;;;;;;;;5054644;28;20384;-76
2021/08/29 12:10:01;;;;;;;14.25;7.22;;;;;;;;;;5054759;28;20531;-76
2021/08/29 12:12:26;;;;;;;9.85;6.70;;;;;;;;;;5054314;28;20021;-76
2021/08/29 12:14:52;;;;;;;10.90;6.57;;;;;;;;;;5054169;28;20036;-77
2021/08/29 12:17:18;;;;;;;10.45;7.10;;;;;;;;;;5054657;28;20128;-76
2021/08/29 12:19:44;;;;;;;16.13;7.22;;;;;;;;;;5036793;28;20029;-77
2021/08/29 12:22:10;;;;;;;13.55;6.88;;;;;;;;;;5054168;28;20461;-76
2021/08/29 12:24:36;;;;;;;14.07;7.30;;;;;;;;;;5054773;28;20435;-76
2021/08/29 12:27:03;;;;;;;10.02;6.85;;;;;;;;;;5054267;28;20051;-74
2021/08/29 12:29:29;;;;;;;11.15;6.78;;;;;;;;;;5050181;28;20110;-76
2021/08/29 12:32:05;;;;;;;11.02;6.82;;;;;;;;;;5053892;28;20100;-76
2021/08/29 12:34:30;;;;;;;11.30;6.63;;;;;;;;;;5053421;28;20524;-76
2021/08/29 12:37:06;;;;;;;10.35;6.65;;;;;;;;;;5054166;28;20028;-76
2021/08/29 12:39:31;;;;;;;10.10;6.65;;;;;;;;;;5034098;28;20033;-76
2021/08/29 12:42:15;;;;;;;12.30;7.38;;;;;;;;;;5040445;28;20033;-76
2021/08/29 12:44:40;;;;;;;12.02;7.45;;;;;;;;;;5053887;28;20453;-76
2021/08/29 12:47:06;;;;;;;15.80;7.55;;;;;;;;;;5053585;28;20033;-77
2021/08/29 12:49:31;;;;;;;12.73;6.50;;;;;;;;;;5054233;28;20017;-76
2021/08/29 12:51:56;;;;;;;9.80;7.03;;;;;;;;;;5054161;28;20033;-74
2021/08/29 12:54:22;;;;;;;13.02;7.43;;;;;;;;;;5053886;28;20082;-76
2021/08/29 12:56:50;;;;;;;10.55;6.80;;;;;;;;;;5053978;28;20029;-76
2021/08/29 12:59:24;;;;;;;9.23;6.70;;;;;;;;;;5053073;28;20033;-76
2021/08/29 13:01:52;;;;;;;14.38;7.07;;;;;;;;;;5053970;28;20040;-74
2021/08/29 13:04:22;;;;;;;12.60;6.63;;;;;;;;;;5053762;28;20028;-74
2021/08/29 13:06:59;;;;;;;10.80;6.95;;;;;;;;;;5053858;28;20036;-74
2021/08/29 13:09:24;;;;;;;10.85;7.15;;;;;;;;;;5053708;28;20124;-76
2021/08/29 13:11:50;;;;;;;11.30;7.05;;;;;;;;;;5053866;28;20449;-76
2021/08/29 13:14:25;;;;;;;13.50;7.00;;;;;;;;;;5053551;28;20037;-76
2021/08/29 13:16:51;;;;;;;10.50;7.13;;;;;;;;;;5053364;28;20474;-76
2021/08/29 13:19:22;;;;;;;14.93;8.40;;;;;;;;;;5053515;28;20036;-76
2021/08/29 13:21:55;;;;;;;10.70;7.63;;;;;;;;;;5035920;28;20056;-76
2021/08/29 13:24:24;;;;;;;13.75;8.68;;;;;;;;;;5053456;28;20029;-76
2021/08/29 13:26:50;;;;;;;12.43;7.78;;;;;;;;;;5053583;28;20040;-73
2021/08/29 13:29:15;;;;;;;12.85;7.47;;;;;;;;;;5053444;28;20029;-74
2021/08/29 13:31:40;;;;;;;11.68;7.47;;;;;;;;;;5053511;28;20147;-76
2021/08/29 13:34:06;;;;;;;12.38;7.20;;;;;;;;;;5053264;28;20040;-74
2021/08/29 13:36:32;;;;;;;16.13;6.57;;;;;;;;;;5053496;28;20040;-74
2021/08/29 13:38:58;;;;;;;12.60;6.72;;;;;;;;;;5053380;28;20033;-73
2021/08/29 13:41:24;;;;;;;13.88;6.68;;;;;;;;;;5053251;28;20032;-74
2021/08/29 13:43:54;;;;;;;13.13;6.60;;;;;;;;;;5053329;28;20027;-74
2021/08/29 13:46:19;;;;;;;13.07;6.22;;;;;;;;;;5053193;28;20029;-74
2021/08/29 13:48:44;;;;;;;12.05;6.10;;;;;;;;;;5052982;28;20025;-74
2021/08/29 13:51:11;;;;;;;11.48;5.55;;;;;;;;;;5053208;28;20013;-75
2021/08/29 13:53:37;;;;;;;9.60;5.00;;;;;;;;;;5053165;28;20040;-74
2021/08/29 13:56:03;;;;;;;12.07;5.60;;;;;;;;;;5053191;28;20105;-74
2021/08/29 13:58:28;;;;;;;7.97;4.25;;;;;;;;;;5053070;28;20056;-75
2021/08/29 14:00:56;;;;;;;7.50;4.40;;;;;;;;;;5052917;28;20350;-76
2021/08/29 14:03:21;;;;;;;9.30;3.90;;;;;;;;;;5053073;28;20056;-75
2021/08/29 14:05:46;;;;;;;11.07;4.47;;;;;;;;;;5053177;28;20098;-76
2021/08/29 14:08:12;;;;;;;10.23;4.50;;;;;;;;;;5052963;28;20488;-76
2021/08/29 14:10:37;;;;;;;7.93;4.43;;;;;;;;;;5053734;28;20033;-76
2021/08/29 14:13:02;;;;;;;20.52;4.88;;;;;;;;;;5057378;28;20035;-76
2021/08/29 14:15:27;;;;;;;7.65;4.15;;;;;;;;;;5056941;28;20043;-74
2021/08/29 14:17:54;;;;;;;11.07;4.50;;;;;;;;;;5057111;28;20028;-76
2021/08/29 14:20:19;;;;;;;12.10;4.70;;;;;;;;;;5056804;28;20028;-76